sensor_id;sensor_type;location;lat;lon;timestamp;P1;durP1;ratioP1;P2;durP2;ratioP2
19946;SDS011;10135;50.702;7.276;2022-10-16T05:32:16;0.80;;;0.80;;
19946;SDS011;10135;50.702;7.276;2022-10-16T05:34:18;1.10;;;1.10;;
19946;SDS011;10135;50.702;7.276;2022-10-16T05:36:20;1.50;;;1.20;;
19946;SDS011;10135;50.702;7.276;2022-10-16T05:38:20;1.27;;;1.23;;
19946;SDS011;10135;50.702;7.276;2022-10-16T05:40:21;1.20;;;1.20;;
19946;SDS011;10135;50.702;7.276;2022-10-16T05:42:22;1.00;;;1.00;;
19946;SDS011;10135;50.702;7.276;2022-10-16T05:44:22;1.30;;;1.07;;
19946;SDS011;10135;50.702;7.276;2022-10-16T05:46:23;0.80;;;0.80;;
19946;SDS011;10135;50.702;7.276;2022-10-16T05:48:24;1.13;;;1.03;;
19946;SDS011;10135;50.702;7.276;2022-10-16T05:50:26;1.10;;;1.10;;
19946;SDS011;10135;50.702;7.276;2022-10-16T05:52:27;1.17;;;1.07;;
19946;SDS011;10135;50.702;7.276;2022-10-16T05:54:28;1.03;;;1.03;;
19946;SDS011;10135;50.702;7.276;2022-10-16T05:56:28;1.00;;;1.00;;
19946;SDS011;10135;50.702;7.276;2022-10-16T05:58:30;0.90;;;0.90;;
19946;SDS011;10135;50.702;7.276;2022-10-16T06:00:35;1.97;;;0.80;;
19946;SDS011;10135;50.702;7.276;2022-10-16T06:02:36;1.17;;;1.17;;
19946;SDS011;10135;50.702;7.276;2022-10-16T06:04:36;1.03;;;1.03;;
19946;SDS011;10135;50.702;7.276;2022-10-16T06:06:37;1.50;;;1.10;;
19946;SDS011;10135;50.702;7.276;2022-10-16T06:08:38;0.90;;;0.90;;
19946;SDS011;10135;50.702;7.276;2022-10-16T06:10:39;0.90;;;0.90;;
19946;SDS011;10135;50.702;7.276;2022-10-16T06:12:40;2.27;;;1.10;;
19946;SDS011;10135;50.702;7.276;2022-10-16T06:14:41;1.10;;;0.93;;
19946;SDS011;10135;50.702;7.276;2022-10-16T06:16:42;1.00;;;1.00;;
19946;SDS011;10135;50.702;7.276;2022-10-16T06:18:42;0.80;;;0.80;;
19946;SDS011;10135;50.702;7.276;2022-10-16T06:20:43;0.90;;;0.90;;
19946;SDS011;10135;50.702;7.276;2022-10-16T06:22:44;0.80;;;0.80;;
19946;SDS011;10135;50.702;7.276;2022-10-16T06:24:45;1.10;;;1.00;;
19946;SDS011;10135;50.702;7.276;2022-10-16T06:26:46;0.97;;;0.97;;
19946;SDS011;10135;50.702;7.276;2022-10-16T06:28:47;1.00;;;1.00;;
19946;SDS011;10135;50.702;7.276;2022-10-16T06:30:48;1.30;;;1.30;;
19946;SDS011;10135;50.702;7.276;2022-10-16T06:32:48;1.10;;;1.10;;
19946;SDS011;10135;50.702;7.276;2022-10-16T06:34:49;1.43;;;1.33;;
19946;SDS011;10135;50.702;7.276;2022-10-16T06:36:50;1.17;;;1.17;;
19946;SDS011;10135;50.702;7.276;2022-10-16T06:38:50;0.97;;;0.97;;
19946;SDS011;10135;50.702;7.276;2022-10-16T06:40:53;0.87;;;0.87;;
19946;SDS011;10135;50.702;7.276;2022-10-16T06:42:56;0.70;;;0.70;;
19946;SDS011;10135;50.702;7.276;2022-10-16T06:44:57;0.87;;;0.87;;
19946;SDS011;10135;50.702;7.276;2022-10-16T06:46:58;0.83;;;0.83;;
19946;SDS011;10135;50.702;7.276;2022-10-16T06:48:58;0.93;;;0.90;;
19946;SDS011;10135;50.702;7.276;2022-10-16T06:51:01;0.80;;;0.80;;
19946;SDS011;10135;50.702;7.276;2022-10-16T06:53:04;0.90;;;0.90;;
19946;SDS011;10135;50.702;7.276;2022-10-16T06:55:05;1.27;;;1.27;;
19946;SDS011;10135;50.702;7.276;2022-10-16T06:57:06;1.07;;;1.00;;
19946;SDS011;10135;50.702;7.276;2022-10-16T06:59:07;2.13;;;2.03;;
19946;SDS011;10135;50.702;7.276;2022-10-16T07:01:08;2.63;;;2.50;;
19946;SDS011;10135;50.702;7.276;2022-10-16T07:03:10;1.30;;;1.30;;
19946;SDS011;10135;50.702;7.276;2022-10-16T07:05:11;1.20;;;1.20;;
19946;SDS011;10135;50.702;7.276;2022-10-16T07:07:12;1.37;;;1.20;;
19946;SDS011;10135;50.702;7.276;2022-10-16T07:09:12;1.07;;;1.07;;
19946;SDS011;10135;50.702;7.276;2022-10-16T07:11:14;1.10;;;1.10;;
19946;SDS011;10135;50.702;7.276;2022-10-16T07:13:18;0.80;;;0.80;;
19946;SDS011;10135;50.702;7.276;2022-10-16T07:15:19;1.10;;;1.00;;
19946;SDS011;10135;50.702;7.276;2022-10-16T07:17:20;0.80;;;0.80;;
19946;SDS011;10135;50.702;7.276;2022-10-16T07:19:21;0.80;;;0.80;;
19946;SDS011;10135;50.702;7.276;2022-10-16T07:21:22;0.80;;;0.80;;
19946;SDS011;10135;50.702;7.276;2022-10-16T07:23:22;1.00;;;0.90;;
19946;SDS011;10135;50.702;7.276;2022-10-16T07:25:23;0.87;;;0.80;;
19946;SDS011;10135;50.702;7.276;2022-10-16T07:27:24;3.17;;;0.97;;
19946;SDS011;10135;50.702;7.276;2022-10-16T07:29:24;1.20;;;1.20;;
19946;SDS011;10135;50.702;7.276;2022-10-16T07:31:25;1.53;;;1.30;;
19946;SDS011;10135;50.702;7.276;2022-10-16T07:33:27;1.47;;;1.37;;
19946;SDS011;10135;50.702;7.276;2022-10-16T07:35:29;1.60;;;1.50;;
19946;SDS011;10135;50.702;7.276;2022-10-16T07:37:29;1.63;;;1.57;;
19946;SDS011;10135;50.702;7.276;2022-10-16T07:39:30;1.40;;;1.37;;
19946;SDS011;10135;50.702;7.276;2022-10-16T07:41:31;1.50;;;1.40;;
19946;SDS011;10135;50.702;7.276;2022-10-16T07:43:36;1.50;;;1.40;;
19946;SDS011;10135;50.702;7.276;2022-10-16T07:45:37;1.80;;;1.70;;
19946;SDS011;10135;50.702;7.276;2022-10-16T07:47:46;1.60;;;1.60;;
19946;SDS011;10135;50.702;7.276;2022-10-16T07:49:46;2.03;;;1.83;;
19946;SDS011;10135;50.702;7.276;2022-10-16T07:51:47;1.60;;;1.50;;
19946;SDS011;10135;50.702;7.276;2022-10-16T07:53:48;1.70;;;1.60;;
19946;SDS011;10135;50.702;7.276;2022-10-16T07:55:49;1.83;;;1.73;;
19946;SDS011;10135;50.702;7.276;2022-10-16T07:57:50;1.47;;;1.47;;
19946;SDS011;10135;50.702;7.276;2022-10-16T07:59:50;1.53;;;1.40;;
19946;SDS011;10135;50.702;7.276;2022-10-16T08:01:51;1.83;;;1.67;;
19946;SDS011;10135;50.702;7.276;2022-10-16T08:03:52;3.77;;;2.50;;
19946;SDS011;10135;50.702;7.276;2022-10-16T08:05:53;2.17;;;1.97;;
19946;SDS011;10135;50.702;7.276;2022-10-16T08:07:54;2.60;;;1.83;;
19946;SDS011;10135;50.702;7.276;2022-10-16T08:09:55;1.87;;;1.77;;
19946;SDS011;10135;50.702;7.276;2022-10-16T08:11:58;1.60;;;1.50;;
19946;SDS011;10135;50.702;7.276;2022-10-16T08:13:58;1.87;;;1.60;;
19946;SDS011;10135;50.702;7.276;2022-10-16T08:15:59;1.10;;;1.10;;
19946;SDS011;10135;50.702;7.276;2022-10-16T08:18:01;2.40;;;1.20;;
19946;SDS011;10135;50.702;7.276;2022-10-16T08:20:05;0.97;;;0.97;;
19946;SDS011;10135;50.702;7.276;2022-10-16T08:22:06;0.90;;;0.90;;
19946;SDS011;10135;50.702;7.276;2022-10-16T08:24:07;0.80;;;0.80;;
19946;SDS011;10135;50.702;7.276;2022-10-16T08:26:08;1.60;;;0.90;;
19946;SDS011;10135;50.702;7.276;2022-10-16T08:28:09;0.80;;;0.80;;
19946;SDS011;10135;50.702;7.276;2022-10-16T08:30:11;0.83;;;0.83;;
19946;SDS011;10135;50.702;7.276;2022-10-16T08:32:12;0.90;;;0.90;;
19946;SDS011;10135;50.702;7.276;2022-10-16T08:34:12;0.73;;;0.73;;
19946;SDS011;10135;50.702;7.276;2022-10-16T08:36:14;2.10;;;0.60;;
19946;SDS011;10135;50.702;7.276;2022-10-16T08:38:16;0.73;;;0.70;;
19946;SDS011;10135;50.702;7.276;2022-10-16T08:40:20;0.63;;;0.60;;
19946;SDS011;10135;50.702;7.276;2022-10-16T08:49:51;0.97;;;0.80;;
19946;SDS011;10135;50.702;7.276;2022-10-16T08:52:02;0.60;;;0.60;;
19946;SDS011;10135;50.702;7.276;2022-10-16T08:54:04;0.87;;;0.87;;
19946;SDS011;10135;50.702;7.276;2022-10-16T08:56:19;0.53;;;0.53;;
19946;SDS011;10135;50.702;7.276;2022-10-16T08:58:21;0.67;;;0.67;;
19946;SDS011;10135;50.702;7.276;2022-10-16T09:00:27;2.78;;;0.90;;
19946;SDS011;10135;50.702;7.276;2022-10-16T09:02:32;0.60;;;0.60;;
19946;SDS011;10135;50.702;7.276;2022-10-16T09:08:07;0.67;;;0.63;;
19946;SDS011;10135;50.702;7.276;2022-10-16T09:15:06;0.60;;;0.60;;
19946;SDS011;10135;50.702;7.276;2022-10-16T09:19:51;0.50;;;0.47;;
19946;SDS011;10135;50.702;7.276;2022-10-16T09:22:15;0.53;;;0.53;;
19946;SDS011;10135;50.702;7.276;2022-10-16T09:24:18;2.03;;;0.60;;
19946;SDS011;10135;50.702;7.276;2022-10-16T09:26:23;0.70;;;0.70;;
19946;SDS011;10135;50.702;7.276;2022-10-16T09:28:24;2.75;;;0.50;;
19946;SDS011;10135;50.702;7.276;2022-10-16T09:30:26;1.00;;;0.60;;
19946;SDS011;10135;50.702;7.276;2022-10-16T09:32:29;0.60;;;0.60;;
19946;SDS011;10135;50.702;7.276;2022-10-16T09:34:39;0.50;;;0.50;;
19946;SDS011;10135;50.702;7.276;2022-10-16T09:36:52;0.93;;;0.90;;
19946;SDS011;10135;50.702;7.276;2022-10-16T09:39:11;0.60;;;0.60;;
19946;SDS011;10135;50.702;7.276;2022-10-16T09:43:22;0.60;;;0.60;;
19946;SDS011;10135;50.702;7.276;2022-10-16T09:45:40;1.55;;;0.63;;
19946;SDS011;10135;50.702;7.276;2022-10-16T09:47:41;1.38;;;0.60;;
19946;SDS011;10135;50.702;7.276;2022-10-16T09:49:54;0.60;;;0.60;;
19946;SDS011;10135;50.702;7.276;2022-10-16T09:52:06;0.60;;;0.60;;
19946;SDS011;10135;50.702;7.276;2022-10-16T09:54:17;0.60;;;0.60;;
19946;SDS011;10135;50.702;7.276;2022-10-16T09:56:30;2.92;;;0.55;;
19946;SDS011;10135;50.702;7.276;2022-10-16T09:58:33;0.60;;;0.60;;
19946;SDS011;10135;50.702;7.276;2022-10-16T10:00:34;0.60;;;0.60;;
19946;SDS011;10135;50.702;7.276;2022-10-16T10:02:35;0.55;;;0.55;;
19946;SDS011;10135;50.702;7.276;2022-10-16T10:04:42;0.50;;;0.50;;
19946;SDS011;10135;50.702;7.276;2022-10-16T10:06:57;0.70;;;0.70;;
19946;SDS011;10135;50.702;7.276;2022-10-16T10:08:59;2.22;;;0.63;;
19946;SDS011;10135;50.702;7.276;2022-10-16T10:11:04;0.60;;;0.60;;
19946;SDS011;10135;50.702;7.276;2022-10-16T10:13:14;0.60;;;0.60;;
19946;SDS011;10135;50.702;7.276;2022-10-16T10:15:20;0.85;;;0.50;;
19946;SDS011;10135;50.702;7.276;2022-10-16T10:17:27;0.70;;;0.70;;
19946;SDS011;10135;50.702;7.276;2022-10-16T10:19:28;0.50;;;0.50;;
19946;SDS011;10135;50.702;7.276;2022-10-16T10:21:29;0.50;;;0.50;;
19946;SDS011;10135;50.702;7.276;2022-10-16T10:23:33;1.48;;;0.60;;
19946;SDS011;10135;50.702;7.276;2022-10-16T10:25:51;0.70;;;0.47;;
19946;SDS011;10135;50.702;7.276;2022-10-16T10:28:21;0.73;;;0.73;;
19946;SDS011;10135;50.702;7.276;2022-10-16T10:30:49;0.50;;;0.50;;
19946;SDS011;10135;50.702;7.276;2022-10-16T10:38:19;0.40;;;0.40;;
19946;SDS011;10135;50.702;7.276;2022-10-16T10:40:49;0.40;;;0.40;;
19946;SDS011;10135;50.702;7.276;2022-10-16T10:45:57;0.55;;;0.55;;
19946;SDS011;10135;50.702;7.276;2022-10-16T10:51:08;1.50;;;0.63;;
19946;SDS011;10135;50.702;7.276;2022-10-16T10:53:33;0.30;;;0.30;;
19946;SDS011;10135;50.702;7.276;2022-10-16T10:55:54;0.40;;;0.40;;
19946;SDS011;10135;50.702;7.276;2022-10-16T11:05:29;0.68;;;0.57;;
19946;SDS011;10135;50.702;7.276;2022-10-16T11:07:54;0.45;;;0.45;;
19946;SDS011;10135;50.702;7.276;2022-10-16T11:10:13;0.50;;;0.50;;
19946;SDS011;10135;50.702;7.276;2022-10-16T11:12:44;0.40;;;0.40;;
19946;SDS011;10135;50.702;7.276;2022-10-16T11:15:01;0.40;;;0.40;;
19946;SDS011;10135;50.702;7.276;2022-10-16T11:17:19;0.52;;;0.43;;
19946;SDS011;10135;50.702;7.276;2022-10-16T11:21:51;1.35;;;0.50;;
19946;SDS011;10135;50.702;7.276;2022-10-16T11:26:28;1.00;;;0.60;;
19946;SDS011;10135;50.702;7.276;2022-10-16T11:28:37;0.40;;;0.40;;
19946;SDS011;10135;50.702;7.276;2022-10-16T11:30:47;0.60;;;0.60;;
19946;SDS011;10135;50.702;7.276;2022-10-16T11:35:06;0.40;;;0.40;;
19946;SDS011;10135;50.702;7.276;2022-10-16T11:37:25;0.77;;;0.47;;
19946;SDS011;10135;50.702;7.276;2022-10-16T11:39:38;0.63;;;0.60;;
19946;SDS011;10135;50.702;7.276;2022-10-16T11:41:57;0.40;;;0.32;;
19946;SDS011;10135;50.702;7.276;2022-10-16T11:44:14;0.50;;;0.50;;
19946;SDS011;10135;50.702;7.276;2022-10-16T11:47:23;1.35;;;0.52;;
19946;SDS011;10135;50.702;7.276;2022-10-16T11:49:27;0.70;;;0.70;;
19946;SDS011;10135;50.702;7.276;2022-10-16T11:51:35;0.60;;;0.60;;
19946;SDS011;10135;50.702;7.276;2022-10-16T11:56:02;0.40;;;0.40;;
19946;SDS011;10135;50.702;7.276;2022-10-16T11:58:27;0.47;;;0.47;;
19946;SDS011;10135;50.702;7.276;2022-10-16T12:00:40;0.60;;;0.60;;
19946;SDS011;10135;50.702;7.276;2022-10-16T12:08:28;2.00;;;0.57;;
19946;SDS011;10135;50.702;7.276;2022-10-16T12:10:29;0.85;;;0.40;;
19946;SDS011;10135;50.702;7.276;2022-10-16T12:12:38;0.50;;;0.50;;
19946;SDS011;10135;50.702;7.276;2022-10-16T12:14:40;0.47;;;0.47;;
19946;SDS011;10135;50.702;7.276;2022-10-16T12:16:57;0.40;;;0.40;;
19946;SDS011;10135;50.702;7.276;2022-10-16T12:19:22;0.55;;;0.50;;
19946;SDS011;10135;50.702;7.276;2022-10-16T12:21:29;0.50;;;0.50;;
19946;SDS011;10135;50.702;7.276;2022-10-16T12:23:38;1.20;;;0.30;;
19946;SDS011;10135;50.702;7.276;2022-10-16T12:25:53;0.50;;;0.50;;
19946;SDS011;10135;50.702;7.276;2022-10-16T12:30:23;0.30;;;0.30;;
19946;SDS011;10135;50.702;7.276;2022-10-16T12:32:35;0.45;;;0.45;;
19946;SDS011;10135;50.702;7.276;2022-10-16T12:34:40;1.65;;;0.57;;
19946;SDS011;10135;50.702;7.276;2022-10-16T12:36:43;0.50;;;0.50;;
19946;SDS011;10135;50.702;7.276;2022-10-16T12:38:48;0.43;;;0.43;;
19946;SDS011;10135;50.702;7.276;2022-10-16T12:40:56;0.52;;;0.52;;
19946;SDS011;10135;50.702;7.276;2022-10-16T12:43:10;0.45;;;0.40;;
19946;SDS011;10135;50.702;7.276;2022-10-16T12:45:32;0.50;;;0.50;;
19946;SDS011;10135;50.702;7.276;2022-10-16T12:49:48;0.40;;;0.40;;
19946;SDS011;10135;50.702;7.276;2022-10-16T12:51:54;1.77;;;0.45;;
19946;SDS011;10135;50.702;7.276;2022-10-16T12:56:18;0.40;;;0.40;;
19946;SDS011;10135;50.702;7.276;2022-10-16T12:58:32;1.65;;;0.50;;
19946;SDS011;10135;50.702;7.276;2022-10-16T13:05:38;0.40;;;0.40;;
19946;SDS011;10135;50.702;7.276;2022-10-16T13:10:32;1.08;;;0.50;;
19946;SDS011;10135;50.702;7.276;2022-10-16T13:12:57;0.60;;;0.60;;
19946;SDS011;10135;50.702;7.276;2022-10-16T13:15:51;0.73;;;0.47;;
19946;SDS011;10135;50.702;7.276;2022-10-16T13:18:16;0.85;;;0.50;;
19946;SDS011;10135;50.702;7.276;2022-10-16T13:25:33;1.05;;;0.70;;
19946;SDS011;10135;50.702;7.276;2022-10-16T13:28:00;0.70;;;0.70;;
19946;SDS011;10135;50.702;7.276;2022-10-16T13:32:29;0.80;;;0.80;;
19946;SDS011;10135;50.702;7.276;2022-10-16T13:34:31;0.50;;;0.50;;
19946;SDS011;10135;50.702;7.276;2022-10-16T13:36:42;0.70;;;0.70;;
19946;SDS011;10135;50.702;7.276;2022-10-16T13:38:47;0.60;;;0.60;;
19946;SDS011;10135;50.702;7.276;2022-10-16T13:41:01;0.70;;;0.70;;
19946;SDS011;10135;50.702;7.276;2022-10-16T13:43:05;0.70;;;0.70;;
19946;SDS011;10135;50.702;7.276;2022-10-16T13:45:16;0.65;;;0.65;;
19946;SDS011;10135;50.702;7.276;2022-10-16T13:47:27;0.73;;;0.73;;
19946;SDS011;10135;50.702;7.276;2022-10-16T13:49:29;0.75;;;0.75;;
19946;SDS011;10135;50.702;7.276;2022-10-16T13:51:30;0.93;;;0.63;;
19946;SDS011;10135;50.702;7.276;2022-10-16T13:53:33;1.00;;;0.70;;
19946;SDS011;10135;50.702;7.276;2022-10-16T13:55:35;0.75;;;0.60;;
19946;SDS011;10135;50.702;7.276;2022-10-16T13:57:36;0.75;;;0.75;;
19946;SDS011;10135;50.702;7.276;2022-10-16T13:59:37;0.70;;;0.70;;
19946;SDS011;10135;50.702;7.276;2022-10-16T14:01:42;2.42;;;0.80;;
19946;SDS011;10135;50.702;7.276;2022-10-16T14:03:44;0.80;;;0.80;;
19946;SDS011;10135;50.702;7.276;2022-10-16T14:05:48;1.08;;;0.98;;
19946;SDS011;10135;50.702;7.276;2022-10-16T14:07:53;0.80;;;0.80;;
19946;SDS011;10135;50.702;7.276;2022-10-16T14:09:56;0.80;;;0.80;;
19946;SDS011;10135;50.702;7.276;2022-10-16T14:12:08;1.20;;;0.70;;
19946;SDS011;10135;50.702;7.276;2022-10-16T14:14:11;1.40;;;0.63;;
19946;SDS011;10135;50.702;7.276;2022-10-16T14:16:23;1.65;;;0.70;;
19946;SDS011;10135;50.702;7.276;2022-10-16T14:18:27;1.17;;;0.80;;
19946;SDS011;10135;50.702;7.276;2022-10-16T14:20:30;0.70;;;0.70;;
19946;SDS011;10135;50.702;7.276;2022-10-16T14:22:37;0.57;;;0.57;;
19946;SDS011;10135;50.702;7.276;2022-10-16T14:24:40;2.53;;;0.70;;
19946;SDS011;10135;50.702;7.276;2022-10-16T14:26:44;0.50;;;0.50;;
19946;SDS011;10135;50.702;7.276;2022-10-16T14:28:47;0.60;;;0.60;;
19946;SDS011;10135;50.702;7.276;2022-10-16T14:31:01;0.82;;;0.60;;
19946;SDS011;10135;50.702;7.276;2022-10-16T14:37:36;0.60;;;0.50;;
19946;SDS011;10135;50.702;7.276;2022-10-16T14:39:36;2.92;;;0.80;;
19946;SDS011;10135;50.702;7.276;2022-10-16T14:41:41;0.70;;;0.70;;
19946;SDS011;10135;50.702;7.276;2022-10-16T14:43:49;0.60;;;0.60;;
19946;SDS011;10135;50.702;7.276;2022-10-16T14:45:54;0.50;;;0.50;;
19946;SDS011;10135;50.702;7.276;2022-10-16T14:47:57;0.70;;;0.70;;
19946;SDS011;10135;50.702;7.276;2022-10-16T14:50:02;0.90;;;0.80;;
19946;SDS011;10135;50.702;7.276;2022-10-16T14:52:08;0.80;;;0.80;;
19946;SDS011;10135;50.702;7.276;2022-10-16T14:54:12;1.10;;;0.60;;
19946;SDS011;10135;50.702;7.276;2022-10-16T14:56:24;0.70;;;0.70;;
19946;SDS011;10135;50.702;7.276;2022-10-16T14:58:42;0.80;;;0.50;;
19946;SDS011;10135;50.702;7.276;2022-10-16T15:00:44;0.55;;;0.55;;
19946;SDS011;10135;50.702;7.276;2022-10-16T15:02:45;1.48;;;0.60;;
19946;SDS011;10135;50.702;7.276;2022-10-16T15:04:47;1.40;;;0.50;;
19946;SDS011;10135;50.702;7.276;2022-10-16T15:06:48;0.63;;;0.63;;
19946;SDS011;10135;50.702;7.276;2022-10-16T15:08:49;0.60;;;0.60;;
19946;SDS011;10135;50.702;7.276;2022-10-16T15:10:50;0.60;;;0.60;;
19946;SDS011;10135;50.702;7.276;2022-10-16T15:12:51;0.40;;;0.40;;
19946;SDS011;10135;50.702;7.276;2022-10-16T15:14:52;0.60;;;0.60;;
19946;SDS011;10135;50.702;7.276;2022-10-16T15:16:53;0.70;;;0.70;;
19946;SDS011;10135;50.702;7.276;2022-10-16T15:18:53;0.68;;;0.60;;
19946;SDS011;10135;50.702;7.276;2022-10-16T15:20:54;0.57;;;0.50;;
19946;SDS011;10135;50.702;7.276;2022-10-16T15:22:55;0.60;;;0.60;;
19946;SDS011;10135;50.702;7.276;2022-10-16T15:24:57;1.00;;;0.70;;
19946;SDS011;10135;50.702;7.276;2022-10-16T15:26:58;0.68;;;0.68;;
19946;SDS011;10135;50.702;7.276;2022-10-16T15:28:58;0.60;;;0.60;;
19946;SDS011;10135;50.702;7.276;2022-10-16T15:30:59;2.10;;;0.80;;
19946;SDS011;10135;50.702;7.276;2022-10-16T15:32:59;1.17;;;0.68;;
19946;SDS011;10135;50.702;7.276;2022-10-16T15:35:01;0.70;;;0.70;;
19946;SDS011;10135;50.702;7.276;2022-10-16T15:37:03;8.55;;;0.88;;
19946;SDS011;10135;50.702;7.276;2022-10-16T15:39:04;0.68;;;0.68;;
19946;SDS011;10135;50.702;7.276;2022-10-16T15:41:17;0.60;;;0.60;;
19946;SDS011;10135;50.702;7.276;2022-10-16T15:43:17;0.77;;;0.75;;
19946;SDS011;10135;50.702;7.276;2022-10-16T15:45:18;1.35;;;0.70;;
19946;SDS011;10135;50.702;7.276;2022-10-16T15:47:19;0.68;;;0.68;;
19946;SDS011;10135;50.702;7.276;2022-10-16T15:49:20;0.70;;;0.70;;
19946;SDS011;10135;50.702;7.276;2022-10-16T15:51:21;0.77;;;0.77;;
19946;SDS011;10135;50.702;7.276;2022-10-16T15:53:21;1.33;;;0.50;;
19946;SDS011;10135;50.702;7.276;2022-10-16T15:55:22;0.50;;;0.50;;
19946;SDS011;10135;50.702;7.276;2022-10-16T15:57:23;1.10;;;0.77;;
19946;SDS011;10135;50.702;7.276;2022-10-16T15:59:24;0.65;;;0.65;;
19946;SDS011;10135;50.702;7.276;2022-10-16T16:01:25;0.60;;;0.60;;
19946;SDS011;10135;50.702;7.276;2022-10-16T16:03:27;0.70;;;0.70;;
19946;SDS011;10135;50.702;7.276;2022-10-16T16:05:28;0.70;;;0.70;;
19946;SDS011;10135;50.702;7.276;2022-10-16T16:07:32;0.82;;;0.70;;
19946;SDS011;10135;50.702;7.276;2022-10-16T16:09:36;0.60;;;0.60;;
19946;SDS011;10135;50.702;7.276;2022-10-16T16:11:37;5.22;;;0.70;;
19946;SDS011;10135;50.702;7.276;2022-10-16T16:13:38;0.52;;;0.52;;
19946;SDS011;10135;50.702;7.276;2022-10-16T16:15:41;0.63;;;0.63;;
19946;SDS011;10135;50.702;7.276;2022-10-16T16:17:41;0.60;;;0.60;;
19946;SDS011;10135;50.702;7.276;2022-10-16T16:19:42;0.60;;;0.60;;
19946;SDS011;10135;50.702;7.276;2022-10-16T16:21:46;0.98;;;0.80;;
19946;SDS011;10135;50.702;7.276;2022-10-16T16:23:47;0.80;;;0.80;;
19946;SDS011;10135;50.702;7.276;2022-10-16T16:28:11;0.70;;;0.70;;
19946;SDS011;10135;50.702;7.276;2022-10-16T16:30:14;0.70;;;0.70;;
19946;SDS011;10135;50.702;7.276;2022-10-16T16:32:14;0.60;;;0.60;;
19946;SDS011;10135;50.702;7.276;2022-10-16T16:34:15;3.90;;;0.95;;
19946;SDS011;10135;50.702;7.276;2022-10-16T16:36:16;0.82;;;0.82;;
19946;SDS011;10135;50.702;7.276;2022-10-16T16:38:18;1.40;;;0.82;;
19946;SDS011;10135;50.702;7.276;2022-10-16T16:40:18;0.90;;;0.90;;
19946;SDS011;10135;50.702;7.276;2022-10-16T16:42:19;0.70;;;0.70;;
19946;SDS011;10135;50.702;7.276;2022-10-16T16:44:19;0.70;;;0.70;;
19946;SDS011;10135;50.702;7.276;2022-10-16T16:46:20;0.80;;;0.80;;
19946;SDS011;10135;50.702;7.276;2022-10-16T16:48:22;0.77;;;0.77;;
19946;SDS011;10135;50.702;7.276;2022-10-16T16:50:22;0.68;;;0.68;;
19946;SDS011;10135;50.702;7.276;2022-10-16T16:52:23;0.77;;;0.77;;
19946;SDS011;10135;50.702;7.276;2022-10-16T16:54:24;0.80;;;0.80;;
19946;SDS011;10135;50.702;7.276;2022-10-16T16:56:25;1.75;;;0.80;;
19946;SDS011;10135;50.702;7.276;2022-10-16T16:58:26;1.75;;;0.80;;
19946;SDS011;10135;50.702;7.276;2022-10-16T17:00:27;0.95;;;0.95;;
19946;SDS011;10135;50.702;7.276;2022-10-16T17:02:27;0.80;;;0.80;;
19946;SDS011;10135;50.702;7.276;2022-10-16T17:04:28;0.75;;;0.75;;
19946;SDS011;10135;50.702;7.276;2022-10-16T17:06:29;2.15;;;0.75;;
19946;SDS011;10135;50.702;7.276;2022-10-16T17:08:29;0.77;;;0.77;;
19946;SDS011;10135;50.702;7.276;2022-10-16T17:10:31;1.65;;;0.70;;
19946;SDS011;10135;50.702;7.276;2022-10-16T17:12:31;0.95;;;0.80;;
19946;SDS011;10135;50.702;7.276;2022-10-16T17:14:32;1.65;;;0.90;;
19946;SDS011;10135;50.702;7.276;2022-10-16T17:16:34;1.75;;;0.77;;
19946;SDS011;10135;50.702;7.276;2022-10-16T17:18:37;0.70;;;0.70;;
19946;SDS011;10135;50.702;7.276;2022-10-16T17:20:38;0.88;;;0.88;;
19946;SDS011;10135;50.702;7.276;2022-10-16T17:22:39;1.60;;;0.80;;
19946;SDS011;10135;50.702;7.276;2022-10-16T17:24:39;0.82;;;0.82;;
19946;SDS011;10135;50.702;7.276;2022-10-16T17:26:40;0.90;;;0.90;;
19946;SDS011;10135;50.702;7.276;2022-10-16T17:28:43;0.98;;;0.98;;
19946;SDS011;10135;50.702;7.276;2022-10-16T17:30:44;0.80;;;0.80;;
19946;SDS011;10135;50.702;7.276;2022-10-16T17:32:45;4.07;;;1.05;;
19946;SDS011;10135;50.702;7.276;2022-10-16T17:34:46;1.00;;;1.00;;
19946;SDS011;10135;50.702;7.276;2022-10-16T17:36:47;1.10;;;1.00;;
19946;SDS011;10135;50.702;7.276;2022-10-16T17:38:47;1.17;;;1.17;;
19946;SDS011;10135;50.702;7.276;2022-10-16T17:40:48;1.10;;;1.10;;
19946;SDS011;10135;50.702;7.276;2022-10-16T17:42:49;1.55;;;1.00;;
19946;SDS011;10135;50.702;7.276;2022-10-16T17:44:49;1.10;;;1.10;;
19946;SDS011;10135;50.702;7.276;2022-10-16T17:46:51;1.02;;;1.02;;
19946;SDS011;10135;50.702;7.276;2022-10-16T17:48:53;1.40;;;1.10;;
19946;SDS011;10135;50.702;7.276;2022-10-16T17:50:54;1.10;;;1.10;;
19946;SDS011;10135;50.702;7.276;2022-10-16T17:52:55;1.70;;;1.42;;
19946;SDS011;10135;50.702;7.276;2022-10-16T17:54:56;2.58;;;1.25;;
19946;SDS011;10135;50.702;7.276;2022-10-16T17:56:57;1.13;;;1.13;;
19946;SDS011;10135;50.702;7.276;2022-10-16T17:58:58;1.48;;;1.30;;
19946;SDS011;10135;50.702;7.276;2022-10-16T18:01:00;1.27;;;1.17;;
19946;SDS011;10135;50.702;7.276;2022-10-16T18:03:10;2.30;;;1.35;;
19946;SDS011;10135;50.702;7.276;2022-10-16T18:05:10;1.65;;;1.20;;
19946;SDS011;10135;50.702;7.276;2022-10-16T18:07:11;1.45;;;1.35;;
19946;SDS011;10135;50.702;7.276;2022-10-16T18:09:13;1.38;;;1.20;;
19946;SDS011;10135;50.702;7.276;2022-10-16T18:11:20;2.92;;;1.27;;
19946;SDS011;10135;50.702;7.276;2022-10-16T18:13:21;1.23;;;1.20;;
19946;SDS011;10135;50.702;7.276;2022-10-16T18:15:22;2.40;;;1.15;;
19946;SDS011;10135;50.702;7.276;2022-10-16T18:17:23;2.03;;;1.35;;
19946;SDS011;10135;50.702;7.276;2022-10-16T18:19:24;1.20;;;1.20;;
19946;SDS011;10135;50.702;7.276;2022-10-16T18:21:28;1.87;;;1.60;;
19946;SDS011;10135;50.702;7.276;2022-10-16T18:23:31;3.07;;;1.40;;
19946;SDS011;10135;50.702;7.276;2022-10-16T18:25:34;2.38;;;1.55;;
19946;SDS011;10135;50.702;7.276;2022-10-16T18:27:34;1.45;;;1.45;;
19946;SDS011;10135;50.702;7.276;2022-10-16T18:29:35;1.42;;;1.40;;
19946;SDS011;10135;50.702;7.276;2022-10-16T18:31:37;1.33;;;1.33;;
19946;SDS011;10135;50.702;7.276;2022-10-16T18:33:40;1.70;;;1.60;;
19946;SDS011;10135;50.702;7.276;2022-10-16T18:35:46;2.95;;;1.42;;
19946;SDS011;10135;50.702;7.276;2022-10-16T18:37:47;2.30;;;1.40;;
19946;SDS011;10135;50.702;7.276;2022-10-16T18:39:48;1.73;;;1.40;;
19946;SDS011;10135;50.702;7.276;2022-10-16T18:41:49;1.40;;;1.30;;
19946;SDS011;10135;50.702;7.276;2022-10-16T18:43:50;1.40;;;1.40;;
19946;SDS011;10135;50.702;7.276;2022-10-16T18:45:55;1.37;;;1.37;;
19946;SDS011;10135;50.702;7.276;2022-10-16T18:47:57;1.85;;;1.23;;
19946;SDS011;10135;50.702;7.276;2022-10-16T18:49:58;1.17;;;1.17;;
19946;SDS011;10135;50.702;7.276;2022-10-16T18:51:59;1.40;;;1.30;;
19946;SDS011;10135;50.702;7.276;2022-10-16T18:54:04;1.60;;;1.50;;
19946;SDS011;10135;50.702;7.276;2022-10-16T18:56:08;2.10;;;1.30;;
19946;SDS011;10135;50.702;7.276;2022-10-16T18:58:10;1.10;;;1.10;;
19946;SDS011;10135;50.702;7.276;2022-10-16T19:00:11;1.40;;;1.40;;
19946;SDS011;10135;50.702;7.276;2022-10-16T19:02:12;2.20;;;1.20;;
19946;SDS011;10135;50.702;7.276;2022-10-16T19:04:14;1.45;;;1.30;;
19946;SDS011;10135;50.702;7.276;2022-10-16T19:06:16;1.63;;;1.53;;
19946;SDS011;10135;50.702;7.276;2022-10-16T19:08:16;1.40;;;1.40;;
19946;SDS011;10135;50.702;7.276;2022-10-16T19:10:17;1.50;;;1.50;;
19946;SDS011;10135;50.702;7.276;2022-10-16T19:12:18;1.80;;;1.70;;
19946;SDS011;10135;50.702;7.276;2022-10-16T19:14:19;1.48;;;1.48;;
19946;SDS011;10135;50.702;7.276;2022-10-16T19:16:21;1.60;;;1.60;;
19946;SDS011;10135;50.702;7.276;2022-10-16T19:18:29;1.83;;;1.60;;
19946;SDS011;10135;50.702;7.276;2022-10-16T19:20:36;1.88;;;1.60;;
19946;SDS011;10135;50.702;7.276;2022-10-16T19:22:38;1.67;;;1.60;;
19946;SDS011;10135;50.702;7.276;2022-10-16T19:24:53;2.13;;;1.95;;
19946;SDS011;10135;50.702;7.276;2022-10-16T19:26:53;1.60;;;1.60;;